createdAt,value
2019-05-22T00:02:34.110Z,11.20
2019-05-22T00:05:15.192Z,11.20
2019-05-22T00:07:47.184Z,11.20
2019-05-22T00:10:19.833Z,11.20
2019-05-22T00:12:51.900Z,11.10
2019-05-22T00:15:25.503Z,11.10
2019-05-22T00:17:57.828Z,11.10
2019-05-22T00:20:30.099Z,11.10
2019-05-22T00:23:02.880Z,11.00
2019-05-22T00:25:35.918Z,11.00
2019-05-22T00:28:07.055Z,11.00
2019-05-22T00:30:39.280Z,10.90
2019-05-22T00:33:12.132Z,11.00
2019-05-22T00:35:42.303Z,10.90
2019-05-22T00:38:12.088Z,11.00
2019-05-22T00:40:47.839Z,11.00
2019-05-22T00:43:18.837Z,11.00
2019-05-22T00:45:50.874Z,11.00
2019-05-22T00:48:25.397Z,11.00
2019-05-22T00:51:16.641Z,10.90
2019-05-22T00:54:08.502Z,10.90
2019-05-22T00:56:56.607Z,11.00
2019-05-22T00:59:33.725Z,11.00
2019-05-22T01:02:08.132Z,10.90
2019-05-22T01:04:41.376Z,10.90
2019-05-22T01:07:18.632Z,10.90
2019-05-22T01:09:52.364Z,10.90
2019-05-22T01:12:32.059Z,10.90
2019-05-22T01:15:06.427Z,10.80
2019-05-22T01:17:38.255Z,10.80
2019-05-22T01:20:12.870Z,10.80
2019-05-22T01:22:46.709Z,10.70
2019-05-22T01:25:21.128Z,10.70
2019-05-22T01:27:52.173Z,10.70
2019-05-22T01:30:51.425Z,10.70
2019-05-22T01:33:23.765Z,10.70
2019-05-22T01:36:20.589Z,10.60
2019-05-22T01:38:50.850Z,10.70
2019-05-22T01:41:26.422Z,10.70
2019-05-22T01:44:10.109Z,10.70
2019-05-22T01:46:41.939Z,10.70
2019-05-22T01:49:14.989Z,10.70
2019-05-22T01:51:44.847Z,10.70
2019-05-22T01:54:15.081Z,10.70
2019-05-22T01:56:46.088Z,10.70
2019-05-22T01:59:16.411Z,10.60
2019-05-22T02:01:47.777Z,10.60
2019-05-22T02:04:19.339Z,10.50
2019-05-22T02:06:50.661Z,10.60
2019-05-22T02:09:34.072Z,10.70
2019-05-22T02:12:11.622Z,10.70
2019-05-22T02:14:45.070Z,10.70
2019-05-22T02:17:18.403Z,10.60
2019-05-22T02:19:50.449Z,10.60
2019-05-22T02:22:20.292Z,10.60
2019-05-22T02:24:52.161Z,10.60
2019-05-22T02:27:24.298Z,10.60
2019-05-22T02:29:56.233Z,10.60
2019-05-22T02:32:28.924Z,10.60
2019-05-22T02:35:00.258Z,10.70
2019-05-22T02:37:33.225Z,10.70
2019-05-22T02:40:04.545Z,10.70
2019-05-22T02:42:34.558Z,10.70
2019-05-22T02:45:05.489Z,10.70
2019-05-22T02:47:36.850Z,10.80
2019-05-22T02:50:08.309Z,10.80
2019-05-22T02:52:38.208Z,11.00
2019-05-22T02:55:09.210Z,11.10
2019-05-22T02:57:38.921Z,11.30
2019-05-22T03:00:11.625Z,11.50
2019-05-22T03:02:52.181Z,11.60
2019-05-22T03:05:24.945Z,11.70
2019-05-22T03:07:54.776Z,11.80
2019-05-22T03:10:26.937Z,12.00
2019-05-22T03:12:58.745Z,12.20
2019-05-22T03:15:28.469Z,12.20
2019-05-22T03:18:05.055Z,12.30
2019-05-22T03:20:36.047Z,12.40
2019-05-22T03:23:36.653Z,12.60
2019-05-22T03:26:09.304Z,12.80
2019-05-22T03:28:43.101Z,12.80
2019-05-22T03:31:13.966Z,13.00
2019-05-22T03:33:44.559Z,13.10
2019-05-22T03:36:21.249Z,13.20
2019-05-22T03:38:51.883Z,13.30
2019-05-22T03:41:24.607Z,13.30
2019-05-22T03:43:55.884Z,13.40
2019-05-22T03:46:59.276Z,13.50
2019-05-22T03:49:31.017Z,13.50
2019-05-22T03:52:00.566Z,13.70
2019-05-22T03:54:30.501Z,13.70
2019-05-22T03:57:00.312Z,13.60
2019-05-22T03:59:30.109Z,13.50
2019-05-22T04:02:00.762Z,13.30
2019-05-22T04:04:37.269Z,13.20
2019-05-22T04:07:11.032Z,13.20
2019-05-22T04:09:43.070Z,13.30
2019-05-22T04:12:13.927Z,13.60
2019-05-22T04:14:44.450Z,14.20
2019-05-22T04:17:14.790Z,14.80
2019-05-22T04:19:50.205Z,15.20
2019-05-22T04:22:18.045Z,16.10
2019-05-22T04:24:49.485Z,17.40
2019-05-22T04:27:20.427Z,18.90
2019-05-22T04:29:52.638Z,20.20
2019-05-22T04:32:29.019Z,21.10
2019-05-22T04:34:59.459Z,20.70
2019-05-22T04:37:31.087Z,20.80
2019-05-22T04:40:50.648Z,20.20
2019-05-22T04:43:23.664Z,19.20
2019-05-22T04:45:55.122Z,17.60
2019-05-22T04:48:27.119Z,16.70
2019-05-22T04:51:02.218Z,16.00
2019-05-22T04:53:32.107Z,15.50
2019-05-22T04:56:02.068Z,15.50
2019-05-22T04:58:32.445Z,15.80
2019-05-22T05:01:02.102Z,16.00
2019-05-22T05:03:31.930Z,15.70
2019-05-22T05:06:05.969Z,15.50
2019-05-22T05:08:35.347Z,15.40
2019-05-22T05:11:05.970Z,15.30
2019-05-22T05:13:35.804Z,15.20
2019-05-22T05:16:05.520Z,15.30
2019-05-22T05:18:35.950Z,15.50
2019-05-22T05:21:09.273Z,15.60
2019-05-22T05:23:39.137Z,15.90
2019-05-22T05:26:08.951Z,16.10
2019-05-22T05:28:39.305Z,16.30
2019-05-22T05:31:09.019Z,16.50
2019-05-22T05:33:51.918Z,16.60
2019-05-22T05:36:21.866Z,16.70
2019-05-22T05:38:51.832Z,16.80
2019-05-22T05:41:21.596Z,16.90
2019-05-22T05:43:52.732Z,17.00
2019-05-22T05:46:22.454Z,17.00
2019-05-22T05:48:55.392Z,17.00
2019-05-22T05:51:26.025Z,16.90
2019-05-22T05:54:23.671Z,17.00
2019-05-22T05:56:57.643Z,17.00
2019-05-22T05:59:28.669Z,17.10
2019-05-22T06:02:00.276Z,17.10
2019-05-22T06:04:35.501Z,17.20
2019-05-22T06:07:27.999Z,17.50
2019-05-22T06:10:22.411Z,17.80
2019-05-22T06:12:52.945Z,18.10
2019-05-22T06:15:25.564Z,18.30
2019-05-22T06:18:34.416Z,18.40
2019-05-22T06:21:06.626Z,18.40
2019-05-22T06:24:30.497Z,18.40
2019-05-22T06:27:29.285Z,18.50
2019-05-22T06:30:02.770Z,18.60
2019-05-22T06:33:31.824Z,18.60
2019-05-22T06:36:06.223Z,18.50
2019-05-22T06:38:59.887Z,18.50
2019-05-22T06:41:35.298Z,18.60
2019-05-22T06:44:36.221Z,18.70
2019-05-22T06:47:09.314Z,18.90
2019-05-22T06:49:51.984Z,18.50
2019-05-22T06:52:22.681Z,18.50
2019-05-22T06:54:54.905Z,18.50
2019-05-22T06:57:29.683Z,18.70
2019-05-22T07:00:20.248Z,18.90
2019-05-22T07:02:50.067Z,19.00
2019-05-22T07:05:20.384Z,18.90
2019-05-22T07:07:50.615Z,18.90
2019-05-22T07:10:21.215Z,18.80
2019-05-22T07:12:51.218Z,18.70
2019-05-22T07:15:31.330Z,18.80
2019-05-22T07:18:03.403Z,18.80
2019-05-22T07:20:38.251Z,18.80
2019-05-22T07:23:11.264Z,18.70
2019-05-22T07:25:42.697Z,18.80
2019-05-22T07:28:15.732Z,18.90
2019-05-22T07:30:46.896Z,19.00
2019-05-22T07:33:18.069Z,19.10
2019-05-22T07:36:07.906Z,19.50
2019-05-22T07:38:21.542Z,19.40
2019-05-22T07:40:53.349Z,19.20
2019-05-22T07:43:24.134Z,19.20
2019-05-22T07:45:55.771Z,18.90
2019-05-22T07:48:29.370Z,18.60
2019-05-22T07:51:00.444Z,18.60
2019-05-22T07:53:30.959Z,18.40
2019-05-22T07:56:03.393Z,18.30
2019-05-22T07:58:35.134Z,18.20
2019-05-22T08:01:04.960Z,18.10
2019-05-22T08:03:36.159Z,18.10
2019-05-22T08:06:08.723Z,18.20
2019-05-22T08:08:40.933Z,18.10
2019-05-22T08:11:11.669Z,18.20
2019-05-22T08:13:44.383Z,18.40
2019-05-22T08:16:14.572Z,18.60
2019-05-22T08:18:45.235Z,18.50
2019-05-22T08:21:15.137Z,18.30
2019-05-22T08:23:44.948Z,18.10
2019-05-22T08:26:17.118Z,18.20
2019-05-22T08:28:51.091Z,18.20
2019-05-22T08:31:23.355Z,18.40
2019-05-22T08:33:54.014Z,18.50
2019-05-22T08:36:23.722Z,18.50
2019-05-22T08:38:54.028Z,18.60
2019-05-22T08:41:29.233Z,18.90
2019-05-22T08:44:15.446Z,19.00
2019-05-22T08:46:32.016Z,19.00
2019-05-22T08:49:02.252Z,18.80
2019-05-22T08:51:31.891Z,18.40
2019-05-22T08:54:05.807Z,18.10
2019-05-22T08:56:38.956Z,17.70
2019-05-22T08:59:19.446Z,17.50
2019-05-22T09:01:41.612Z,17.50
2019-05-22T09:04:13.033Z,17.80
2019-05-22T09:06:42.926Z,18.20
2019-05-22T09:09:12.807Z,18.80
2019-05-22T09:11:42.567Z,19.40
2019-05-22T09:14:12.525Z,19.70
2019-05-22T09:16:42.226Z,19.70
2019-05-22T09:19:12.253Z,19.60
2019-05-22T09:21:43.021Z,19.30
2019-05-22T09:24:17.676Z,18.90
2019-05-22T09:26:47.848Z,18.50
2019-05-22T09:29:17.656Z,17.90
2019-05-22T09:31:47.330Z,17.70
2019-05-22T09:34:17.037Z,17.70
2019-05-22T09:36:46.720Z,18.00
2019-05-22T09:39:17.400Z,18.50
2019-05-22T09:41:47.117Z,19.00
2019-05-22T09:44:18.308Z,19.50
2019-05-22T09:46:48.114Z,20.00
2019-05-22T09:49:18.504Z,20.40
2019-05-22T09:51:48.225Z,20.80
2019-05-22T09:54:18.502Z,20.90
2019-05-22T09:56:48.373Z,20.90
2019-05-22T09:59:18.531Z,21.00
2019-05-22T10:01:48.316Z,21.10
2019-05-22T10:04:18.098Z,21.10
2019-05-22T10:06:47.964Z,20.90
2019-05-22T10:09:17.764Z,20.50
2019-05-22T10:11:48.065Z,20.10
2019-05-22T10:14:18.795Z,20.00
2019-05-22T10:16:48.939Z,20.00
2019-05-22T10:19:18.911Z,20.20
2019-05-22T10:21:50.597Z,20.40
2019-05-22T10:24:23.297Z,20.30
2019-05-22T10:26:53.842Z,20.10
2019-05-22T10:29:23.637Z,19.80
2019-05-22T10:31:53.309Z,19.50
2019-05-22T10:34:23.109Z,19.20
2019-05-22T10:36:52.962Z,19.00
2019-05-22T10:39:25.368Z,18.90
2019-05-22T10:41:55.729Z,18.80
2019-05-22T10:44:25.574Z,18.70
2019-05-22T10:46:55.877Z,18.70
2019-05-22T10:49:25.753Z,18.70
2019-05-22T10:51:55.523Z,18.80
2019-05-22T10:54:25.314Z,18.80
2019-05-22T10:56:55.152Z,19.10
2019-05-22T10:59:24.901Z,19.30
2019-05-22T11:01:54.792Z,19.70
2019-05-22T11:04:27.547Z,20.00
2019-05-22T11:06:57.902Z,20.30
2019-05-22T11:09:28.590Z,20.50
2019-05-22T11:11:58.709Z,20.70
2019-05-22T11:14:28.976Z,20.60
2019-05-22T11:17:01.308Z,20.30
2019-05-22T11:19:31.588Z,20.00
2019-05-22T11:22:01.576Z,19.70
2019-05-22T11:24:31.368Z,19.70
2019-05-22T11:27:01.189Z,19.70
2019-05-22T11:29:31.685Z,19.80
2019-05-22T11:32:01.920Z,19.90
2019-05-22T11:34:31.887Z,19.90
2019-05-22T11:37:01.668Z,19.90
2019-05-22T11:39:39.394Z,20.30
2019-05-22T11:42:04.069Z,20.70
2019-05-22T11:44:33.773Z,21.00
2019-05-22T11:47:03.549Z,21.20
2019-05-22T11:49:33.489Z,21.20
2019-05-22T11:52:05.809Z,21.20
2019-05-22T11:54:36.284Z,21.30
2019-05-22T11:57:06.069Z,21.50
2019-05-22T11:59:37.307Z,21.60
2019-05-22T12:02:08.690Z,21.80
2019-05-22T12:04:47.674Z,22.10
2019-05-22T12:07:11.177Z,22.50
2019-05-22T12:09:41.775Z,22.80
2019-05-22T12:12:11.766Z,23.10
2019-05-22T12:14:41.561Z,22.90
2019-05-22T12:17:12.563Z,22.70
2019-05-22T12:19:43.146Z,22.40
2019-05-22T12:22:13.396Z,22.00
2019-05-22T12:24:43.648Z,21.80
2019-05-22T12:27:15.011Z,21.50
2019-05-22T12:29:45.225Z,21.30
2019-05-22T12:32:14.971Z,21.20
2019-05-22T12:34:44.783Z,21.40
2019-05-22T12:37:15.104Z,21.60
2019-05-22T12:39:45.784Z,21.80
2019-05-22T12:42:17.457Z,22.20
2019-05-22T12:44:47.664Z,22.40
2019-05-22T12:47:17.782Z,22.30
2019-05-22T12:49:47.777Z,22.50
2019-05-22T12:52:17.948Z,22.80
2019-05-22T12:54:52.647Z,23.10
2019-05-22T12:57:20.630Z,23.40
2019-05-22T12:59:51.822Z,23.10
2019-05-22T13:02:23.829Z,22.60
2019-05-22T13:04:54.579Z,22.40
2019-05-22T13:07:26.876Z,22.20
2019-05-22T13:09:56.673Z,22.10
2019-05-22T13:12:26.583Z,22.10
2019-05-22T13:15:09.197Z,22.20
2019-05-22T13:17:28.874Z,22.40
2019-05-22T13:20:01.717Z,22.40
2019-05-22T13:22:33.626Z,22.30
2019-05-22T13:25:04.157Z,22.30
2019-05-22T13:27:36.498Z,22.10
2019-05-22T13:30:08.361Z,22.20
2019-05-22T13:32:38.856Z,22.40
2019-05-22T13:35:10.736Z,22.50
2019-05-22T13:37:40.737Z,22.60
2019-05-22T13:40:26.529Z,22.60
2019-05-22T13:42:44.305Z,22.70
2019-05-22T13:45:28.681Z,22.60
2019-05-22T13:47:47.199Z,22.70
2019-05-22T13:50:17.969Z,22.80
2019-05-22T13:52:49.349Z,22.60
2019-05-22T13:55:21.576Z,22.20
2019-05-22T13:57:52.696Z,21.80
2019-05-22T14:00:25.197Z,21.60
2019-05-22T14:02:55.040Z,21.20
2019-05-22T14:05:26.196Z,21.00
2019-05-22T14:07:55.917Z,21.10
2019-05-22T14:10:28.127Z,21.30
2019-05-22T14:12:58.002Z,21.70
2019-05-22T14:15:47.321Z,21.70
2019-05-22T14:18:00.310Z,21.60
2019-05-22T14:20:30.259Z,21.50
2019-05-22T14:23:00.067Z,21.50
2019-05-22T14:25:30.191Z,21.40
2019-05-22T14:28:00.029Z,21.40
2019-05-22T14:30:30.187Z,21.20
2019-05-22T14:33:04.354Z,20.60
2019-05-22T14:35:47.529Z,20.20
2019-05-22T14:38:07.887Z,20.10
2019-05-22T14:40:39.336Z,20.20
2019-05-22T14:43:09.579Z,20.40
2019-05-22T14:45:39.452Z,20.70
2019-05-22T14:48:09.365Z,21.00
2019-05-22T14:50:39.304Z,21.40
2019-05-22T14:53:11.190Z,22.00
2019-05-22T14:55:41.771Z,22.50
2019-05-22T14:58:12.425Z,22.90
2019-05-22T15:00:43.429Z,23.10
2019-05-22T15:03:13.287Z,23.00
2019-05-22T15:05:43.593Z,22.50
2019-05-22T15:08:13.299Z,22.20
2019-05-22T15:10:43.003Z,21.70
2019-05-22T15:13:13.770Z,21.40
2019-05-22T15:15:43.575Z,21.00
2019-05-22T15:18:13.499Z,20.90
2019-05-22T15:20:52.834Z,21.00
2019-05-22T15:23:23.297Z,21.30
2019-05-22T15:25:53.394Z,21.40
2019-05-22T15:28:26.650Z,21.40
2019-05-22T15:30:56.581Z,21.70
2019-05-22T15:33:27.271Z,22.00
2019-05-22T15:35:58.109Z,22.40
2019-05-22T15:38:30.445Z,22.80
2019-05-22T15:41:00.432Z,22.90
2019-05-22T15:43:30.454Z,22.80
2019-05-22T15:46:03.099Z,22.20
2019-05-22T15:48:34.567Z,22.00
2019-05-22T15:51:10.076Z,21.80
2019-05-22T15:53:41.539Z,21.60
2019-05-22T15:56:12.532Z,21.40
2019-05-22T15:58:49.022Z,21.30
2019-05-22T16:01:23.542Z,21.10
2019-05-22T16:03:55.044Z,20.90
2019-05-22T16:06:26.430Z,20.70
2019-05-22T16:08:56.893Z,20.60
2019-05-22T16:11:28.839Z,20.60
2019-05-22T16:14:01.045Z,20.50
2019-05-22T16:16:32.452Z,20.30
2019-05-22T16:19:07.923Z,20.20
2019-05-22T16:21:42.172Z,20.10
2019-05-22T16:24:12.587Z,20.10
2019-05-22T16:26:43.301Z,20.20
2019-05-22T16:29:14.139Z,20.20
2019-05-22T16:31:45.805Z,20.20
2019-05-22T16:34:16.625Z,20.20
2019-05-22T16:36:46.646Z,20.30
2019-05-22T16:39:18.136Z,20.50
2019-05-22T16:41:48.565Z,20.80
2019-05-22T16:44:21.334Z,20.90
2019-05-22T16:47:19.788Z,20.90
2019-05-22T16:49:50.788Z,20.70
2019-05-22T16:52:22.242Z,20.70
2019-05-22T16:54:53.355Z,20.60
2019-05-22T16:57:25.157Z,20.50
2019-05-22T16:59:55.372Z,20.30
2019-05-22T17:02:27.240Z,20.10
2019-05-22T17:04:57.637Z,19.80
2019-05-22T17:07:28.178Z,19.50
2019-05-22T17:09:58.776Z,19.30
2019-05-22T17:12:29.806Z,19.20
2019-05-22T17:15:00.961Z,19.00
2019-05-22T17:17:31.852Z,18.80
2019-05-22T17:20:05.062Z,18.60
2019-05-22T17:22:35.534Z,18.50
2019-05-22T17:25:07.512Z,18.30
2019-05-22T17:27:38.215Z,18.30
2019-05-22T17:30:11.970Z,18.10
2019-05-22T17:32:42.916Z,17.90
2019-05-22T17:35:15.855Z,17.80
2019-05-22T17:37:46.890Z,17.70
2019-05-22T17:40:18.784Z,17.70
2019-05-22T17:42:51.021Z,17.70
2019-05-22T17:45:24.385Z,17.80
2019-05-22T17:47:56.377Z,17.90
2019-05-22T17:50:29.838Z,17.90
2019-05-22T17:53:04.192Z,17.90
2019-05-22T17:55:34.686Z,17.80
2019-05-22T17:58:06.686Z,17.80
2019-05-22T18:00:40.876Z,17.70
2019-05-22T18:03:11.543Z,17.70
2019-05-22T18:05:44.398Z,17.70
2019-05-22T18:08:16.615Z,17.60
2019-05-22T18:10:49.675Z,17.50
2019-05-22T18:13:21.480Z,17.40
2019-05-22T18:15:51.502Z,17.40
2019-05-22T18:18:22.988Z,17.30
2019-05-22T18:20:53.353Z,17.20
2019-05-22T18:23:23.329Z,17.20
2019-05-22T18:25:54.591Z,17.00
2019-05-22T18:28:25.750Z,17.00
2019-05-22T18:30:55.985Z,16.90
2019-05-22T18:33:26.086Z,16.80
2019-05-22T18:35:56.538Z,16.60
2019-05-22T18:38:26.540Z,16.60
2019-05-22T18:40:56.634Z,16.50
2019-05-22T18:43:26.790Z,16.40
2019-05-22T18:45:57.227Z,16.20
2019-05-22T18:48:27.712Z,16.10
2019-05-22T18:50:57.720Z,15.90
2019-05-22T18:53:28.712Z,15.70
2019-05-22T18:55:58.764Z,15.60
2019-05-22T18:58:30.087Z,15.40
2019-05-22T19:01:00.044Z,15.30
2019-05-22T19:03:29.958Z,15.20
2019-05-22T19:06:00.730Z,15.10
2019-05-22T19:08:31.415Z,15.00
2019-05-22T19:11:01.432Z,15.00
2019-05-22T19:13:31.685Z,14.90
2019-05-22T19:16:02.127Z,14.80
2019-05-22T19:18:32.064Z,14.80
2019-05-22T19:21:01.989Z,14.70
2019-05-22T19:23:34.420Z,14.70
2019-05-22T19:26:05.796Z,14.70
2019-05-22T19:28:43.524Z,14.70
2019-05-22T19:31:11.594Z,14.60
2019-05-22T19:33:42.719Z,14.70
2019-05-22T19:36:12.860Z,14.60
2019-05-22T19:38:43.039Z,14.50
2019-05-22T19:41:14.314Z,14.50
2019-05-22T19:43:44.446Z,14.50
2019-05-22T19:46:14.648Z,14.50
2019-05-22T19:48:44.968Z,14.40
2019-05-22T19:51:17.899Z,14.30
2019-05-22T19:53:47.937Z,14.30
2019-05-22T19:56:21.069Z,14.20
2019-05-22T19:58:51.111Z,14.20
2019-05-22T20:01:21.160Z,14.10
2019-05-22T20:03:51.349Z,14.20
2019-05-22T20:06:23.287Z,14.20
2019-05-22T20:08:53.208Z,14.10
2019-05-22T20:11:23.741Z,14.00
2019-05-22T20:13:54.068Z,13.90
2019-05-22T20:16:24.169Z,13.90
2019-05-22T20:18:54.249Z,13.80
2019-05-22T20:21:25.124Z,13.70
2019-05-22T20:23:55.008Z,13.80
2019-05-22T20:26:25.020Z,13.70
2019-05-22T20:28:56.221Z,13.60
2019-05-22T20:31:27.053Z,13.60
2019-05-22T20:33:57.090Z,13.50
2019-05-22T20:36:27.715Z,13.50
2019-05-22T20:38:57.889Z,13.50
2019-05-22T20:41:27.965Z,13.50
2019-05-22T20:43:59.876Z,13.40
2019-05-22T20:46:30.994Z,13.40
2019-05-22T20:49:01.215Z,13.50
2019-05-22T20:51:31.303Z,13.40
2019-05-22T20:54:02.600Z,13.40
2019-05-22T20:56:34.828Z,13.40
2019-05-22T20:59:07.072Z,13.40
2019-05-22T21:01:38.284Z,13.40
2019-05-22T21:04:13.782Z,13.40
2019-05-22T21:06:54.246Z,13.40
2019-05-22T21:09:25.239Z,13.40
2019-05-22T21:11:55.473Z,13.30
2019-05-22T21:14:26.060Z,13.30
2019-05-22T21:16:56.194Z,13.30
2019-05-22T21:19:27.646Z,13.30
2019-05-22T21:21:59.615Z,13.20
2019-05-22T21:24:30.162Z,13.20
2019-05-22T21:27:00.062Z,13.10
2019-05-22T21:29:30.160Z,13.10
2019-05-22T21:32:04.259Z,13.10
2019-05-22T21:34:34.866Z,13.00
2019-05-22T21:37:07.240Z,13.00
2019-05-22T21:39:37.959Z,12.90
2019-05-22T21:42:09.176Z,12.80
2019-05-22T21:44:40.179Z,12.80
2019-05-22T21:47:10.896Z,12.80
2019-05-22T21:49:42.758Z,12.80
2019-05-22T21:52:13.322Z,12.80
2019-05-22T21:54:43.416Z,12.80
2019-05-22T21:57:15.444Z,12.80
2019-05-22T21:59:46.098Z,12.90
2019-05-22T22:02:24.350Z,12.80
2019-05-22T22:04:55.505Z,12.80
2019-05-22T22:07:26.268Z,12.80
2019-05-22T22:09:58.454Z,12.80
2019-05-22T22:12:28.658Z,12.90
2019-05-22T22:14:59.435Z,12.90
2019-05-22T22:17:31.121Z,12.90
2019-05-22T22:20:01.201Z,12.90
2019-05-22T22:22:33.265Z,12.90
2019-05-22T22:25:04.352Z,12.90
2019-05-22T22:27:36.515Z,12.90
2019-05-22T22:30:11.044Z,13.00
2019-05-22T22:32:41.055Z,13.00
2019-05-22T22:35:13.376Z,13.00
2019-05-22T22:37:44.984Z,13.00
2019-05-22T22:40:17.974Z,13.00
2019-05-22T22:42:49.833Z,13.00
2019-05-22T22:45:27.836Z,13.00
2019-05-22T22:47:58.421Z,13.00
2019-05-22T22:50:29.000Z,13.00
2019-05-22T22:53:00.928Z,13.00
2019-05-22T22:55:31.957Z,13.00
2019-05-22T22:58:16.074Z,12.90
2019-05-22T23:00:41.346Z,12.80
2019-05-22T23:03:14.291Z,12.70
2019-05-22T23:05:47.337Z,12.70
2019-05-22T23:08:21.923Z,12.60
2019-05-22T23:10:53.437Z,12.60
2019-05-22T23:13:23.677Z,12.50
2019-05-22T23:15:55.051Z,12.40
2019-05-22T23:19:11.561Z,12.40
2019-05-22T23:21:40.532Z,12.30
2019-05-22T23:24:09.599Z,12.20
2019-05-22T23:26:40.578Z,12.20
2019-05-22T23:29:11.582Z,12.10
2019-05-22T23:31:42.297Z,12.00
2019-05-22T23:34:12.943Z,12.00
2019-05-22T23:36:45.442Z,12.00
2019-05-22T23:39:17.793Z,11.90
2019-05-22T23:41:49.144Z,11.90
2019-05-22T23:44:23.494Z,11.80
2019-05-22T23:46:54.347Z,11.80
2019-05-22T23:49:24.715Z,11.80
2019-05-22T23:51:55.464Z,11.80
2019-05-22T23:54:26.181Z,11.80
2019-05-22T23:56:57.156Z,11.70
2019-05-22T23:59:28.286Z,11.70
